Alpha, California Weather observations

Data are for observation ending at time listed.
 Day   Time    Ave.   Ave.  Ave.  Vector   Max.   Stn.    Total    Solar   Ave.   Snow 
  of    of     Air    Rel.  Wind   Wind    Wind   Baro.  Precip.   Rad.    Soil   Depth
Year   Day     Temp.  Hum.  Speed  Dir.    Gust   Pres.                    Temp.       
2015   (PST)    F      %     mph   deg.    mph     mb.     in.     W/m2     F      in. 
---------------------------------------------------------------------------------------  
 215    3:40   56.2    45    2.9   140      6.6   788.5    0.00       0    999.0  162.3
 215    3:50   56.3    44    2.1   147      5.4   788.5    0.00       0    999.0  162.3
 215    4:00   55.9    46    2.9   140      5.6   788.5    0.00       0    999.0  162.3
 215    4:10   55.7    46    3.2   137      4.9   788.5    0.00       0    999.0  162.3
 215    4:20   55.4    46    2.5   139      5.1   788.5    0.00       0    999.0  162.2
 215    4:30   55.3    46    2.1   159      5.7   788.5    0.00       0    999.0  162.1
 215    4:40   55.5    45    2.3   161      5.2   788.6    0.00       0    999.0  162.2
 215    4:50   55.8    45    3.5   167      6.6   788.6    0.00       0    999.0  162.1
 215    5:00   56.0    45    2.9   166      4.8   788.7    0.00       1    999.0  162.1
 215    5:10   56.0    46    2.6   166      5.0   788.8    0.00       2    999.0  162.1
 215    5:20   55.9    47    1.8   163      3.5   788.9    0.00       4    999.0  162.2
 215    5:30   55.6    48    0.7   150      1.5   789.0    0.00       8    999.0  162.2
 215    5:40   55.9    48    1.2   145      2.3   789.0    0.00      23    999.0  162.1
 215    5:50   56.5    48    2.7   139      4.2   788.9    0.00      22    999.0  162.1
 215    6:00   56.4    48    2.9   134      5.0   789.0    0.00      20    999.0  162.3
 215    6:10   56.5    47    3.0   133      4.5   789.0    0.00      15    999.0  162.3
 215    6:20   56.8    46    3.5   138      5.3   789.0    0.00      22    999.0  162.3
 215    6:30   57.1    47    4.1   137      5.8   788.9    0.00      19    999.0  162.3
 215    6:40   57.6    46    3.5   141      5.8   788.9    0.00      24    999.0  162.3
 215    6:50   57.9    45    3.2   142      6.1   789.0    0.00      33    999.0  162.3
 215    7:00   58.6    44    2.9   142      5.9   789.0    0.00     134    999.0  162.3
 215    7:10   59.0    44    2.9   167      5.9   789.1    0.00     229    999.0  162.1
 215    7:20   59.8    42    3.7   162      6.5   789.2    0.00     254    999.0  162.2
 215    7:30   60.1    42    4.3   162      8.4   789.2    0.00     280    999.0  162.2
 215    7:40   60.4    42    4.9   169     10.0   789.3    0.00     312    999.0  162.2
 215    7:50   59.8    43    5.9   182     10.4   789.4    0.00     338    999.0  162.2
 215    8:00   60.5    44    4.8   183      8.6   789.4    0.00     361    999.0  162.2
 215    8:10   60.4    43    5.1   183      9.3   789.4    0.00     388    999.0  162.2
 215    8:20   60.4    43    6.5   186     10.8   789.5    0.00     410    999.0  162.2
 215    8:30   60.8    41    6.2   184      9.5   789.5    0.00     434    999.0  162.2
 215    8:40   61.1    40    4.8   191      8.8   789.5    0.00     458    999.0  162.2
 215    8:50   61.7    38    5.6   188      9.9   789.4    0.00     481    999.0  162.2
 215    9:00   62.2    38    6.0   186      9.9   789.4    0.00     502    999.0  162.2
 215    9:10   62.6    37    3.7   190      8.8   789.5    0.00     523    999.0  162.2
 215    9:20   63.7    36    4.5   177     10.7   789.5    0.00     542    999.0  162.1
 215    9:30   63.4    36    4.6   188     11.4   789.5    0.00     559    999.0  162.1
 215    9:40   63.9    34    5.4   186     10.4   789.5    0.00     577    999.0  162.1
 215    9:50   64.8    31    2.5   148      6.2   789.5    0.00     593    999.0  161.9
 215   10:00   65.8    33    3.5   202      9.2   789.5    0.00     608    999.0  161.9
 215   10:10   65.3    33    4.2   202      9.8   789.6    0.00     621    999.0  161.9
 215   10:20   65.6    32    3.6   221      6.9   789.7    0.00     635    999.0  162.0
 215   10:30   66.1    31    5.1   222     11.5   789.7    0.00     647    999.0  161.9
 215   10:40   66.8    28    3.4   231      7.9   789.7    0.00     658    999.0  161.8
 215   10:50   67.2    27    3.5   227     10.3   789.7    0.00     669    999.0  101.4
 215   11:00   67.9    25    4.0   214     12.1   789.7    0.00     677    999.0   73.9
 215   11:10   68.1    26    3.2   255     10.7   789.7    0.00     684    999.0   15.5
 215   11:20   67.2    27    2.9   282      7.7   789.7    0.00     692    999.0   29.1
 215   11:30   67.1    27    3.2   248      8.6   789.6    0.00     694    999.0  118.5
 215   11:40   68.5    27    2.9   252      9.3   789.5    0.00     698    999.0  161.8
 215   11:50   68.7    27    3.5   247      9.1   789.5    0.00     700    999.0  161.8
 215   12:00   68.8    26    2.6   273      7.0   789.5    0.00     702    999.0  161.8
 215   12:10   68.9    27    3.1   282      9.9   789.5    0.00     701    999.0  161.8
 215   12:20   69.0    28    3.6   249      7.5   789.5    0.00     702    999.0  161.9
 215   12:30   69.1    31    4.3   225      9.2   789.6    0.00     695    999.0  162.0
 215   12:40   69.0    35    4.4   242     11.1   789.6    0.00     691    999.0  162.0
 215   12:50   67.7    36    3.8   250     12.7   789.6    0.00     683    999.0  162.1
 215   13:00   69.6    36    4.1   228     10.1   789.5    0.00     680    999.0  162.1
 215   13:10   68.9    38    3.6   241     10.7   789.6    0.00     670    999.0  162.1
 215   13:20   68.3    38    4.1   261     10.4   789.6    0.00     662    999.0  162.1
 215   13:30   67.5    38    3.4   275     13.1   789.7    0.00     651    999.0  162.1
 215   13:40   68.3    38    4.2   244     10.4   789.7    0.00     640    999.0  162.1
 215   13:50   68.4    38    2.7   274      8.6   789.7    0.00     631    999.0  162.1
 215   14:00   68.8    38    3.2   246      7.9   789.6    0.00     618    999.0  162.1
 215   14:10   67.8    39    4.0   254     10.5   789.6    0.00     605    999.0  162.1
 215   14:20   67.4    39    3.8   254      8.0   789.6    0.00     420    999.0  162.1
 215   14:30   67.1    40    3.4   283      8.2   789.5    0.00      68    999.0  162.1
 215   14:40   67.4    39    2.8   276      8.6   789.4    0.00     202    999.0  162.1
 215   14:50   67.0    40    3.6   240      9.5   789.3    0.00     281    999.0  162.2
 215   15:00   67.1    39    2.8   246      7.7   789.3    0.00     196    999.0  162.2
 215   15:10   67.9    37    3.0   253      9.0   789.2    0.00     414    999.0  162.2
 215   15:20   66.4    38    4.5   251     10.7   789.2    0.00     109    999.0  162.2
 215   15:30   67.1    37    2.7   268      8.1   789.0    0.00      28    999.0  162.2
 215   15:40   66.8    38    2.5   290      7.7   789.0    0.00      76    999.0  162.2
 215   15:50   66.7    39    2.5   274      7.3   789.0    0.00      32    999.0  162.2
 215   16:00   66.7    39    2.2   289      5.9   788.9    0.00      65    999.0  162.2
 215   16:10   66.9    38    2.9   243      7.3   788.9    0.00      23    999.0  162.2
 215   16:20   66.8    39    2.5   291      6.9   788.9    0.00      24    999.0  162.2
 215   16:30   67.1    40    2.1   270      5.9   788.9    0.00      28    999.0  162.2
 215   16:40   67.4    39    1.8   277      5.6   788.9    0.00     163    999.0  162.2
 215   16:50   66.5    41    2.5   306      6.4   788.8    0.00     156    999.0  162.2
 215   17:00   65.7    42    2.3   299      7.6   788.8    0.00     227    999.0  162.2
 215   17:10   66.3    42    1.6   301      5.4   788.7    0.00     217    999.0  162.2
 215   17:20   66.2    42    1.7   311      4.1   788.7    0.00     153    999.0  162.2
 215   17:30   66.3    42    1.9   305      6.1   788.7    0.00     169    999.0  162.2
 215   17:40   65.6    43    1.8   314      6.3   788.8    0.00     145    999.0  162.2
 215   17:50   65.2    44    2.0   290      6.5   788.8    0.00     122    999.0  162.2
 215   18:00   64.9    45    1.5   321      4.4   788.8    0.00     102    999.0  162.2
 215   18:10   64.1    46    2.1   327      6.1   788.8    0.00      82    999.0  162.1
 215   18:20   63.0    48    2.1   321      4.2   788.9    0.00      58    999.0  161.9
 215   18:30   61.6    52    2.0   323      3.8   788.9    0.00      15    999.0  162.2
 215   18:40   60.3    54    1.9   330      4.9   789.0    0.00      14    999.0  162.2
 215   18:50   59.4    56    1.8   329      3.1   789.0    0.00       9    999.0  162.2
 215   19:00   58.6    58    1.6   332      4.2   788.9    0.00       6    999.0  162.2
 215   19:10   58.0    59    2.0   329      3.7   789.0    0.00       3    999.0  162.3
 215   19:20   57.5    60    1.5   338      2.9   789.0    0.00       1    999.0  162.2
 215   19:30   57.0    61    1.7   329      2.5   789.0    0.00       0    999.0  162.0
 215   19:40   56.6    61    0.9   328      2.0   789.1    0.00       0    999.0  162.0
 215   19:50   56.4    62    0.9   342      1.8   789.1    0.00       0    999.0  102.6
 215   20:00   56.2    62    0.7   335      1.4   789.1    0.00       0    999.0   14.2
 215   20:10   56.3    62    0.7   339      1.8   789.2    0.00       0    999.0   13.7
 215   20:20   56.6    59    1.3   244      3.4   789.2    0.00       0    999.0   13.6
 215   20:30   57.1    58    1.5   235      2.2   789.2    0.00       0    999.0   13.5
 215   20:40   57.1    59    1.5   215      2.6   789.3    0.00       0    999.0   13.4
 215   20:50   56.8    60    2.5   192      4.0   789.3    0.00       0    999.0   13.4
 215   21:00   56.7    60    2.8   180      5.0   789.3    0.00       0    999.0   13.4
 215   21:10   56.8    60    2.0   162      3.9   789.3    0.00       0    999.0   13.8
 215   21:20   56.6    59    1.6   144      3.7   789.3    0.00       0    999.0   13.7
 215   21:30   56.6    57    1.8   150      4.5   789.3    0.00       0    999.0   13.9
 215   21:40   56.6    56    1.8   150      5.3   789.4    0.00       0    999.0   73.8
 215   21:50   56.6    53    2.7   156      6.4   789.3    0.00       0    999.0  162.0
 215   22:00   56.8    51    1.9   150      5.2   789.3    0.00       0    999.0  162.0
 215   22:10   56.6    53    2.5   137      4.7   789.3    0.00       0    999.0  162.0
 215   22:20   56.2    53    2.4   144      4.4   789.3    0.00       0    999.0  162.0
 215   22:30   56.4    50    2.5   163      4.1   789.3    0.00       0    999.0  161.8
 215   22:40   56.6    50    3.3   170      6.3   789.3    0.00       0    999.0  161.8
 215   22:50   56.8    49    2.7   178      5.8   789.3    0.00       0    999.0  162.0
 215   23:00   56.4    49    2.2   163      6.0   789.4    0.00       0    999.0  162.0
 215   23:10   56.2    50    1.6   103      2.6   789.3    0.00       0    999.0  162.0
 215   23:20   56.4    50    1.8   106      2.7   789.3    0.00       0    999.0  162.0
 215   23:30   56.4    50    1.4   116      2.3   789.4    0.00       0    999.0  162.0
 215   23:40   56.5    51    1.5   164      3.6   789.4    0.00       0    999.0  162.0
 215   23:50   56.3    52    1.6   160      3.9   789.3    0.00       0    999.0  161.8
 216    0:00   56.1    53    1.1   132      2.6   789.3    0.00       0    999.0  162.0
 216    0:10   56.4    52    1.4   152      3.7   789.3    0.00       0    999.0  162.0
 216    0:20   56.5    52    0.6   126      1.1   789.3    0.00       0    999.0  162.0
 216    0:30   56.4    52    1.3   137      3.6   789.3    0.00       0    999.0  162.0
 216    0:40   56.5    52    2.2   169      3.7   789.2    0.00       0    999.0  161.9
 216    0:50   56.8    52    2.4   176      3.9   789.2    0.00       0    999.0  161.9
 216    1:00   56.5    52    2.2   178      4.3   789.3    0.00       0    999.0  161.9
 216    1:10   56.6    50    3.1   175      4.8   789.2    0.00       0    999.0  162.0
 216    1:20   56.6    50    2.9   183      4.2   789.3    0.00       0    999.0  162.0
 216    1:30   56.5    53    3.1   172      4.1   789.2    0.00       0    999.0  161.9
 216    1:40   56.2    53    1.3   166      5.6   789.2    0.00       0    999.0  162.0
 216    1:50   56.2    48    1.5   149      4.1   789.1    0.00       0    999.0  162.1
 216    2:00   56.2    47    2.6   133      3.7   789.1    0.00       0    999.0  162.2
 216    2:10   56.2    45    2.9   128      5.1   789.1    0.00       0    999.0  162.3
 216    2:20   56.6    42    3.2   127      5.7   789.1    0.00       0    999.0  162.3
 216    2:30   56.9    41    2.7   128      5.7   789.1    0.00       0    999.0  162.3
 216    2:40   56.7    41    1.5   134      4.3   789.1    0.00       0    999.0  162.3
 216    2:50   56.5    42    0.8   145      1.6   789.1    0.00       0    999.0  162.3
 216    3:00   56.1    44    0.0     0      0.0   789.1    0.00       0    999.0  162.3
 216    3:10   55.5    45    0.5   176      2.4   789.0    0.00       0    999.0  162.3
 216    3:20   55.7    48    2.1   177      3.9   789.0    0.00       0    999.0  162.3
 216    3:30   55.9    48    1.4   160      3.6   789.0    0.00       0    999.0  162.1

Return to Alpha graphs page.


Western Regional Climate Center,wrcc@dri.edu